sensor_id;sensor_type;location;lat;lon;timestamp;pressure;altitude;pressure_sealevel;temperature;humidity
77706;BME280;66874;45.274;5.880;2023-07-24T00:00:19;98288.53;;;24.64;47.83
77706;BME280;66874;45.274;5.880;2023-07-24T00:02:45;98285.31;;;24.60;47.81
77706;BME280;66874;45.274;5.880;2023-07-24T00:05:10;98282.31;;;24.53;48.09
77706;BME280;66874;45.274;5.880;2023-07-24T00:07:36;98287.22;;;24.48;47.70
77706;BME280;66874;45.274;5.880;2023-07-24T00:10:02;98271.31;;;24.47;47.64
77706;BME280;66874;45.274;5.880;2023-07-24T00:12:28;98265.81;;;24.48;47.73
77706;BME280;66874;45.274;5.880;2023-07-24T00:14:53;98263.88;;;24.50;47.48
77706;BME280;66874;45.274;5.880;2023-07-24T00:17:19;98267.66;;;24.48;47.51
77706;BME280;66874;45.274;5.880;2023-07-24T00:19:44;98260.78;;;24.45;47.43
77706;BME280;66874;45.274;5.880;2023-07-24T00:22:09;98256.53;;;24.43;47.27
77706;BME280;66874;45.274;5.880;2023-07-24T00:24:35;98256.97;;;24.48;47.22
77706;BME280;66874;45.274;5.880;2023-07-24T00:27:00;98251.63;;;24.48;47.10
77706;BME280;66874;45.274;5.880;2023-07-24T00:29:26;98239.09;;;24.48;47.22
77706;BME280;66874;45.274;5.880;2023-07-24T00:31:52;98242.22;;;24.53;47.58
77706;BME280;66874;45.274;5.880;2023-07-24T00:34:17;98234.19;;;24.53;47.43
77706;BME280;66874;45.274;5.880;2023-07-24T00:36:43;98226.72;;;24.47;47.62
77706;BME280;66874;45.274;5.880;2023-07-24T00:39:08;98214.88;;;24.40;47.83
77706;BME280;66874;45.274;5.880;2023-07-24T00:41:33;98209.78;;;24.37;48.11
77706;BME280;66874;45.274;5.880;2023-07-24T00:43:59;98203.88;;;24.33;48.15
77706;BME280;66874;45.274;5.880;2023-07-24T00:46:25;98205.25;;;24.28;48.67
77706;BME280;66874;45.274;5.880;2023-07-24T00:48:51;98204.94;;;24.21;48.63
77706;BME280;66874;45.274;5.880;2023-07-24T00:51:17;98194.94;;;24.13;49.14
77706;BME280;66874;45.274;5.880;2023-07-24T00:53:43;98185.91;;;24.05;49.01
77706;BME280;66874;45.274;5.880;2023-07-24T00:56:09;98191.94;;;23.97;49.62
77706;BME280;66874;45.274;5.880;2023-07-24T00:58:37;98192.19;;;23.94;49.70
77706;BME280;66874;45.274;5.880;2023-07-24T01:01:03;98194.13;;;23.82;50.02
77706;BME280;66874;45.274;5.880;2023-07-24T01:03:33;98192.00;;;23.76;50.12
77706;BME280;66874;45.274;5.880;2023-07-24T01:06:01;98185.53;;;23.79;50.39
77706;BME280;66874;45.274;5.880;2023-07-24T01:08:27;98170.91;;;23.83;50.21
77706;BME280;66874;45.274;5.880;2023-07-24T01:10:53;98173.88;;;23.80;50.04
77706;BME280;66874;45.274;5.880;2023-07-24T01:13:22;98177.66;;;23.77;50.24
77706;BME280;66874;45.274;5.880;2023-07-24T01:15:54;98184.94;;;23.75;50.66
77706;BME280;66874;45.274;5.880;2023-07-24T01:18:24;98180.84;;;23.71;50.91
77706;BME280;66874;45.274;5.880;2023-07-24T01:20:51;98170.47;;;23.68;50.99
77706;BME280;66874;45.274;5.880;2023-07-24T01:25:56;98178.97;;;23.62;51.29
77706;BME280;66874;45.274;5.880;2023-07-24T01:28:22;98180.78;;;23.61;51.61
77706;BME280;66874;45.274;5.880;2023-07-24T01:30:48;98181.31;;;23.55;51.58
77706;BME280;66874;45.274;5.880;2023-07-24T01:33:13;98186.94;;;23.52;51.95
77706;BME280;66874;45.274;5.880;2023-07-24T01:35:41;98180.03;;;23.50;52.29
77706;BME280;66874;45.274;5.880;2023-07-24T01:38:09;98152.16;;;23.43;52.69
77706;BME280;66874;45.274;5.880;2023-07-24T01:40:35;98138.25;;;23.39;52.41
77706;BME280;66874;45.274;5.880;2023-07-24T01:43:01;98123.06;;;23.39;52.42
77706;BME280;66874;45.274;5.880;2023-07-24T01:45:26;98114.94;;;23.41;52.75
77706;BME280;66874;45.274;5.880;2023-07-24T01:47:52;98119.16;;;23.44;52.56
77706;BME280;66874;45.274;5.880;2023-07-24T01:50:18;98122.09;;;23.40;52.20
77706;BME280;66874;45.274;5.880;2023-07-24T01:52:43;98121.38;;;23.38;52.34
77706;BME280;66874;45.274;5.880;2023-07-24T01:55:10;98122.94;;;23.41;52.28
77706;BME280;66874;45.274;5.880;2023-07-24T01:57:35;98146.97;;;23.41;51.96
77706;BME280;66874;45.274;5.880;2023-07-24T02:00:01;98157.75;;;23.39;52.09
77706;BME280;66874;45.274;5.880;2023-07-24T02:02:26;98170.13;;;23.40;51.87
77706;BME280;66874;45.274;5.880;2023-07-24T02:04:52;98209.59;;;23.37;52.39
77706;BME280;66874;45.274;5.880;2023-07-24T02:07:17;98281.44;;;23.29;53.06
77706;BME280;66874;45.274;5.880;2023-07-24T02:09:42;98352.84;;;23.04;54.88
77706;BME280;66874;45.274;5.880;2023-07-24T02:12:08;98361.59;;;22.84;55.23
77706;BME280;66874;45.274;5.880;2023-07-24T02:14:33;98378.53;;;22.83;55.35
77706;BME280;66874;45.274;5.880;2023-07-24T02:16:59;98399.78;;;22.84;55.68
77706;BME280;66874;45.274;5.880;2023-07-24T02:19:24;98458.06;;;22.89;56.63
77706;BME280;66874;45.274;5.880;2023-07-24T02:21:49;98467.75;;;22.90;57.09
77706;BME280;66874;45.274;5.880;2023-07-24T02:24:15;98539.19;;;22.98;58.05
77706;BME280;66874;45.274;5.880;2023-07-24T02:26:40;98497.09;;;22.90;58.06
77706;BME280;66874;45.274;5.880;2023-07-24T02:29:05;98372.03;;;22.76;58.44
77706;BME280;66874;45.274;5.880;2023-07-24T02:31:31;98271.47;;;22.55;59.49
77706;BME280;66874;45.274;5.880;2023-07-24T02:33:56;98273.19;;;22.34;60.74
77706;BME280;66874;45.274;5.880;2023-07-24T02:36:22;98297.00;;;22.13;61.59
77706;BME280;66874;45.274;5.880;2023-07-24T02:38:47;98323.63;;;21.90;62.62
77706;BME280;66874;45.274;5.880;2023-07-24T02:41:13;98331.69;;;21.66;63.52
77706;BME280;66874;45.274;5.880;2023-07-24T02:43:38;98305.16;;;21.54;64.02
77706;BME280;66874;45.274;5.880;2023-07-24T02:46:03;98283.97;;;21.52;64.10
77706;BME280;66874;45.274;5.880;2023-07-24T02:48:29;98267.53;;;21.47;64.53
77706;BME280;66874;45.274;5.880;2023-07-24T02:50:54;98273.44;;;21.39;65.19
77706;BME280;66874;45.274;5.880;2023-07-24T02:53:20;98279.72;;;21.38;65.29
77706;BME280;66874;45.274;5.880;2023-07-24T02:55:45;98273.56;;;21.38;65.33
77706;BME280;66874;45.274;5.880;2023-07-24T02:58:12;98260.97;;;21.40;65.79
77706;BME280;66874;45.274;5.880;2023-07-24T03:00:38;98270.66;;;21.41;65.83
77706;BME280;66874;45.274;5.880;2023-07-24T03:03:03;98282.47;;;21.37;65.46
77706;BME280;66874;45.274;5.880;2023-07-24T03:05:29;98269.31;;;21.35;65.49
77706;BME280;66874;45.274;5.880;2023-07-24T03:07:54;98263.00;;;21.36;65.08
77706;BME280;66874;45.274;5.880;2023-07-24T03:10:19;98264.13;;;21.34;65.08
77706;BME280;66874;45.274;5.880;2023-07-24T03:12:45;98274.94;;;21.31;64.96
77706;BME280;66874;45.274;5.880;2023-07-24T03:15:10;98274.81;;;21.32;65.16
77706;BME280;66874;45.274;5.880;2023-07-24T03:17:35;98274.09;;;21.30;65.49
77706;BME280;66874;45.274;5.880;2023-07-24T03:20:15;98258.25;;;21.29;65.84
77706;BME280;66874;45.274;5.880;2023-07-24T03:22:41;98241.56;;;21.27;66.28
77706;BME280;66874;45.274;5.880;2023-07-24T03:25:07;98229.09;;;21.27;66.41
77706;BME280;66874;45.274;5.880;2023-07-24T03:27:33;98238.91;;;21.27;66.98
77706;BME280;66874;45.274;5.880;2023-07-24T03:29:58;98238.91;;;21.27;67.01
77706;BME280;66874;45.274;5.880;2023-07-24T03:32:23;98242.53;;;21.26;67.05
77706;BME280;66874;45.274;5.880;2023-07-24T03:34:49;98275.31;;;21.26;67.28
77706;BME280;66874;45.274;5.880;2023-07-24T03:37:14;98271.06;;;21.24;67.43
77706;BME280;66874;45.274;5.880;2023-07-24T03:39:39;98276.81;;;21.17;67.73
77706;BME280;66874;45.274;5.880;2023-07-24T03:42:05;98291.22;;;21.15;68.20
77706;BME280;66874;45.274;5.880;2023-07-24T03:46:55;98355.81;;;21.04;69.04
77706;BME280;66874;45.274;5.880;2023-07-24T03:49:21;98352.53;;;21.01;68.85
77706;BME280;66874;45.274;5.880;2023-07-24T03:51:47;98320.41;;;21.04;68.61
77706;BME280;66874;45.274;5.880;2023-07-24T03:54:13;98323.34;;;21.12;68.59
77706;BME280;66874;45.274;5.880;2023-07-24T03:56:38;98305.00;;;21.20;68.33
77706;BME280;66874;45.274;5.880;2023-07-24T03:59:05;98318.81;;;21.25;68.20
77706;BME280;66874;45.274;5.880;2023-07-24T04:01:31;98316.41;;;21.22;67.95
77706;BME280;66874;45.274;5.880;2023-07-24T04:03:57;98307.91;;;21.17;68.36
77706;BME280;66874;45.274;5.880;2023-07-24T04:06:23;98310.69;;;21.15;68.23
77706;BME280;66874;45.274;5.880;2023-07-24T04:08:48;98293.03;;;21.14;68.48
77706;BME280;66874;45.274;5.880;2023-07-24T04:11:14;98280.00;;;20.98;69.16
77706;BME280;66874;45.274;5.880;2023-07-24T04:13:39;98268.38;;;20.88;69.80
77706;BME280;66874;45.274;5.880;2023-07-24T04:16:05;98211.31;;;20.81;70.10
77706;BME280;66874;45.274;5.880;2023-07-24T04:18:30;98155.44;;;20.70;70.31
77706;BME280;66874;45.274;5.880;2023-07-24T04:20:57;98139.34;;;20.60;71.02
77706;BME280;66874;45.274;5.880;2023-07-24T04:23:22;98115.03;;;20.54;71.47
77706;BME280;66874;45.274;5.880;2023-07-24T04:25:51;98160.75;;;20.46;71.62
77706;BME280;66874;45.274;5.880;2023-07-24T04:28:16;98307.81;;;20.45;71.71
77706;BME280;66874;45.274;5.880;2023-07-24T04:30:42;98411.53;;;20.43;71.86
77706;BME280;66874;45.274;5.880;2023-07-24T04:33:07;98433.00;;;20.28;71.39
77706;BME280;66874;45.274;5.880;2023-07-24T04:35:32;98396.94;;;19.72;71.38
77706;BME280;66874;45.274;5.880;2023-07-24T04:37:58;98362.16;;;19.23;71.90
77706;BME280;66874;45.274;5.880;2023-07-24T04:40:24;98368.09;;;18.72;72.66
77706;BME280;66874;45.274;5.880;2023-07-24T04:42:49;98375.72;;;18.48;73.37
77706;BME280;66874;45.274;5.880;2023-07-24T04:45:15;98417.84;;;18.39;74.14
77706;BME280;66874;45.274;5.880;2023-07-24T04:47:40;98407.91;;;18.42;74.09
77706;BME280;66874;45.274;5.880;2023-07-24T04:50:07;98435.72;;;18.49;74.52
77706;BME280;66874;45.274;5.880;2023-07-24T04:52:32;98491.78;;;18.56;74.53
77706;BME280;66874;45.274;5.880;2023-07-24T04:54:58;98467.28;;;18.52;74.90
77706;BME280;66874;45.274;5.880;2023-07-24T04:57:23;98483.66;;;18.59;74.78
77706;BME280;66874;45.274;5.880;2023-07-24T04:59:48;98488.59;;;18.65;74.74
77706;BME280;66874;45.274;5.880;2023-07-24T05:02:14;98478.06;;;18.64;74.61
77706;BME280;66874;45.274;5.880;2023-07-24T05:04:39;98414.06;;;18.71;74.91
77706;BME280;66874;45.274;5.880;2023-07-24T05:07:06;98405.25;;;18.85;74.70
77706;BME280;66874;45.274;5.880;2023-07-24T05:09:32;98447.34;;;18.90;74.67
77706;BME280;66874;45.274;5.880;2023-07-24T05:11:57;98499.31;;;18.92;75.04
77706;BME280;66874;45.274;5.880;2023-07-24T05:14:22;98501.03;;;18.93;75.04
77706;BME280;66874;45.274;5.880;2023-07-24T05:16:48;98515.13;;;18.94;75.21
77706;BME280;66874;45.274;5.880;2023-07-24T05:19:13;98529.31;;;18.93;75.24
77706;BME280;66874;45.274;5.880;2023-07-24T05:21:39;98532.66;;;18.96;75.19
77706;BME280;66874;45.274;5.880;2023-07-24T05:24:04;98534.81;;;19.04;75.08
77706;BME280;66874;45.274;5.880;2023-07-24T05:26:29;98556.69;;;19.08;75.27
77706;BME280;66874;45.274;5.880;2023-07-24T05:28:55;98589.25;;;19.10;75.32
77706;BME280;66874;45.274;5.880;2023-07-24T05:31:20;98592.66;;;18.97;75.47
77706;BME280;66874;45.274;5.880;2023-07-24T05:33:45;98572.88;;;18.89;75.96
77706;BME280;66874;45.274;5.880;2023-07-24T05:36:11;98571.63;;;18.94;76.17
77706;BME280;66874;45.274;5.880;2023-07-24T05:38:36;98539.56;;;18.99;76.13
77706;BME280;66874;45.274;5.880;2023-07-24T05:41:03;98531.69;;;18.97;76.15
77706;BME280;66874;45.274;5.880;2023-07-24T05:43:29;98521.84;;;18.99;76.01
77706;BME280;66874;45.274;5.880;2023-07-24T05:45:56;98512.66;;;18.91;76.39
77706;BME280;66874;45.274;5.880;2023-07-24T05:48:22;98448.41;;;18.87;76.55
77706;BME280;66874;45.274;5.880;2023-07-24T05:50:48;98406.66;;;18.91;76.40
77706;BME280;66874;45.274;5.880;2023-07-24T05:53:14;98422.84;;;18.86;76.72
77706;BME280;66874;45.274;5.880;2023-07-24T05:55:40;98491.94;;;18.83;76.80
77706;BME280;66874;45.274;5.880;2023-07-24T05:58:05;98549.31;;;18.84;76.89
77706;BME280;66874;45.274;5.880;2023-07-24T06:00:31;98510.59;;;18.82;76.99
77706;BME280;66874;45.274;5.880;2023-07-24T06:02:56;98482.94;;;18.86;76.95
77706;BME280;66874;45.274;5.880;2023-07-24T06:05:22;98384.03;;;18.85;76.90
77706;BME280;66874;45.274;5.880;2023-07-24T06:07:47;98419.81;;;18.78;77.23
77706;BME280;66874;45.274;5.880;2023-07-24T06:10:13;98427.47;;;18.83;77.41
77706;BME280;66874;45.274;5.880;2023-07-24T06:12:38;98404.88;;;18.91;77.55
77706;BME280;66874;45.274;5.880;2023-07-24T06:15:04;98385.38;;;18.92;77.53
77706;BME280;66874;45.274;5.880;2023-07-24T06:17:30;98371.56;;;18.87;77.94
77706;BME280;66874;45.274;5.880;2023-07-24T06:19:56;98378.84;;;18.84;78.05
77706;BME280;66874;45.274;5.880;2023-07-24T06:22:22;98357.34;;;18.88;78.08
77706;BME280;66874;45.274;5.880;2023-07-24T06:24:48;98338.84;;;19.01;77.84
77706;BME280;66874;45.274;5.880;2023-07-24T06:27:13;98339.97;;;19.11;78.13
77706;BME280;66874;45.274;5.880;2023-07-24T06:29:38;98330.66;;;19.18;78.31
77706;BME280;66874;45.274;5.880;2023-07-24T06:32:04;98326.22;;;19.32;78.19
77706;BME280;66874;45.274;5.880;2023-07-24T06:34:30;98327.06;;;19.32;78.17
77706;BME280;66874;45.274;5.880;2023-07-24T06:36:55;98329.53;;;19.35;78.14
77706;BME280;66874;45.274;5.880;2023-07-24T06:39:21;98335.94;;;19.45;78.27
77706;BME280;66874;45.274;5.880;2023-07-24T06:41:46;98333.50;;;19.55;78.03
77706;BME280;66874;45.274;5.880;2023-07-24T06:44:11;98333.41;;;19.57;78.18
77706;BME280;66874;45.274;5.880;2023-07-24T06:46:37;98327.88;;;19.60;78.07
77706;BME280;66874;45.274;5.880;2023-07-24T06:49:02;98346.19;;;19.64;78.37
77706;BME280;66874;45.274;5.880;2023-07-24T06:51:28;98359.78;;;19.72;78.09
77706;BME280;66874;45.274;5.880;2023-07-24T06:53:53;98364.97;;;19.74;78.03
77706;BME280;66874;45.274;5.880;2023-07-24T06:56:19;98362.44;;;19.72;78.08
77706;BME280;66874;45.274;5.880;2023-07-24T06:58:44;98367.63;;;19.74;78.11
77706;BME280;66874;45.274;5.880;2023-07-24T07:01:09;98361.28;;;19.77;78.21
77706;BME280;66874;45.274;5.880;2023-07-24T07:03:35;98369.88;;;19.80;78.48
77706;BME280;66874;45.274;5.880;2023-07-24T07:06:01;98362.25;;;19.88;78.66
77706;BME280;66874;45.274;5.880;2023-07-24T07:08:27;98365.34;;;19.95;78.18
77706;BME280;66874;45.274;5.880;2023-07-24T07:10:59;98351.75;;;19.99;78.12
77706;BME280;66874;45.274;5.880;2023-07-24T07:13:25;98344.41;;;20.03;77.86
77706;BME280;66874;45.274;5.880;2023-07-24T07:15:51;98365.75;;;20.02;78.39
77706;BME280;66874;45.274;5.880;2023-07-24T07:18:16;98361.91;;;20.06;78.37
77706;BME280;66874;45.274;5.880;2023-07-24T07:20:46;98355.03;;;20.16;78.19
77706;BME280;66874;45.274;5.880;2023-07-24T07:23:11;98347.28;;;20.26;78.32
77706;BME280;66874;45.274;5.880;2023-07-24T07:25:37;98355.97;;;20.28;78.33
77706;BME280;66874;45.274;5.880;2023-07-24T07:28:02;98375.06;;;20.33;78.06
77706;BME280;66874;45.274;5.880;2023-07-24T07:30:28;98382.84;;;20.36;77.58
77706;BME280;66874;45.274;5.880;2023-07-24T07:32:53;98380.50;;;20.31;77.63
77706;BME280;66874;45.274;5.880;2023-07-24T07:35:18;98381.69;;;20.27;77.86
77706;BME280;66874;45.274;5.880;2023-07-24T07:37:44;98383.50;;;20.27;77.89
77706;BME280;66874;45.274;5.880;2023-07-24T07:40:09;98387.41;;;20.21;77.88
77706;BME280;66874;45.274;5.880;2023-07-24T07:42:35;98384.66;;;20.22;78.11
77706;BME280;66874;45.274;5.880;2023-07-24T07:45:00;98380.00;;;20.26;78.07
77706;BME280;66874;45.274;5.880;2023-07-24T07:47:26;98374.34;;;20.31;77.95
77706;BME280;66874;45.274;5.880;2023-07-24T07:49:51;98375.00;;;20.34;77.95
77706;BME280;66874;45.274;5.880;2023-07-24T07:52:16;98361.16;;;20.42;77.84
77706;BME280;66874;45.274;5.880;2023-07-24T07:54:49;98375.31;;;20.55;77.99
77706;BME280;66874;45.274;5.880;2023-07-24T07:57:14;98381.03;;;20.62;77.93
77706;BME280;66874;45.274;5.880;2023-07-24T07:59:40;98365.41;;;20.70;77.84
77706;BME280;66874;45.274;5.880;2023-07-24T08:02:06;98347.22;;;20.77;78.03
77706;BME280;66874;45.274;5.880;2023-07-24T08:04:31;98334.63;;;20.91;77.93
77706;BME280;66874;45.274;5.880;2023-07-24T08:06:57;98341.16;;;20.98;77.83
77706;BME280;66874;45.274;5.880;2023-07-24T08:09:23;98321.25;;;21.04;77.88
77706;BME280;66874;45.274;5.880;2023-07-24T08:11:49;98314.63;;;21.10;77.94
77706;BME280;66874;45.274;5.880;2023-07-24T08:14:14;98309.47;;;21.19;77.43
77706;BME280;66874;45.274;5.880;2023-07-24T08:16:40;98307.72;;;21.31;77.32
77706;BME280;66874;45.274;5.880;2023-07-24T08:19:05;98285.31;;;21.47;77.19
77706;BME280;66874;45.274;5.880;2023-07-24T08:21:31;98278.16;;;21.47;76.61
77706;BME280;66874;45.274;5.880;2023-07-24T08:23:56;98265.00;;;21.45;77.01
77706;BME280;66874;45.274;5.880;2023-07-24T08:26:22;98260.75;;;21.43;76.51
77706;BME280;66874;45.274;5.880;2023-07-24T08:28:49;98254.56;;;21.42;76.38
77706;BME280;66874;45.274;5.880;2023-07-24T08:31:15;98254.69;;;21.52;76.25
77706;BME280;66874;45.274;5.880;2023-07-24T08:33:40;98247.34;;;21.67;76.00
77706;BME280;66874;45.274;5.880;2023-07-24T08:36:07;98246.28;;;21.81;75.96
77706;BME280;66874;45.274;5.880;2023-07-24T08:38:33;98249.81;;;21.92;75.33
77706;BME280;66874;45.274;5.880;2023-07-24T08:41:06;98252.72;;;22.01;75.08
77706;BME280;66874;45.274;5.880;2023-07-24T08:43:34;98258.03;;;22.12;74.93
77706;BME280;66874;45.274;5.880;2023-07-24T08:46:01;98250.53;;;22.06;74.74
77706;BME280;66874;45.274;5.880;2023-07-24T08:48:42;98258.03;;;22.01;74.88
77706;BME280;66874;45.274;5.880;2023-07-24T08:51:18;98269.16;;;21.94;74.78
77706;BME280;66874;45.274;5.880;2023-07-24T08:53:49;98280.91;;;21.92;75.02
77706;BME280;66874;45.274;5.880;2023-07-24T08:56:15;98270.75;;;21.97;75.31
77706;BME280;66874;45.274;5.880;2023-07-24T08:58:41;98263.84;;;22.06;75.13
77706;BME280;66874;45.274;5.880;2023-07-24T09:01:07;98260.94;;;22.09;75.14
77706;BME280;66874;45.274;5.880;2023-07-24T09:03:33;98259.72;;;22.13;75.32
77706;BME280;66874;45.274;5.880;2023-07-24T09:05:59;98240.03;;;22.15;75.23
77706;BME280;66874;45.274;5.880;2023-07-24T09:08:36;98248.84;;;22.27;74.99
77706;BME280;66874;45.274;5.880;2023-07-24T09:11:02;98237.44;;;22.36;74.67
77706;BME280;66874;45.274;5.880;2023-07-24T09:13:29;98238.16;;;22.50;74.91
77706;BME280;66874;45.274;5.880;2023-07-24T09:15:55;98227.31;;;22.74;74.32
77706;BME280;66874;45.274;5.880;2023-07-24T09:18:21;98215.75;;;22.96;74.19
77706;BME280;66874;45.274;5.880;2023-07-24T09:20:46;98215.91;;;23.15;73.70
77706;BME280;66874;45.274;5.880;2023-07-24T09:23:13;98217.31;;;23.40;73.43
77706;BME280;66874;45.274;5.880;2023-07-24T09:25:40;98232.75;;;23.57;72.73
77706;BME280;66874;45.274;5.880;2023-07-24T09:30:35;98236.22;;;23.69;71.69
77706;BME280;66874;45.274;5.880;2023-07-24T09:33:00;98236.47;;;23.87;71.88
77706;BME280;66874;45.274;5.880;2023-07-24T09:35:26;98248.53;;;24.12;71.07
77706;BME280;66874;45.274;5.880;2023-07-24T09:38:10;98267.97;;;24.24;70.17
77706;BME280;66874;45.274;5.880;2023-07-24T09:40:44;98274.47;;;24.31;70.00
77706;BME280;66874;45.274;5.880;2023-07-24T09:43:27;98281.91;;;24.27;69.38
77706;BME280;66874;45.274;5.880;2023-07-24T09:45:53;98291.00;;;24.15;68.90
77706;BME280;66874;45.274;5.880;2023-07-24T09:48:22;98289.84;;;24.08;68.39
77706;BME280;66874;45.274;5.880;2023-07-24T09:50:52;98289.13;;;24.06;68.25
77706;BME280;66874;45.274;5.880;2023-07-24T09:55:56;98299.31;;;24.43;68.87
77706;BME280;66874;45.274;5.880;2023-07-24T09:58:23;98284.50;;;24.89;67.81
77706;BME280;66874;45.274;5.880;2023-07-24T10:00:49;98285.78;;;25.04;67.20
77706;BME280;66874;45.274;5.880;2023-07-24T10:03:15;98281.47;;;25.22;66.91
77706;BME280;66874;45.274;5.880;2023-07-24T10:05:43;98296.25;;;25.36;66.24
77706;BME280;66874;45.274;5.880;2023-07-24T10:08:10;98286.78;;;25.61;66.13
77706;BME280;66874;45.274;5.880;2023-07-24T10:10:37;98292.84;;;25.63;65.36
77706;BME280;66874;45.274;5.880;2023-07-24T10:13:03;98291.44;;;25.78;65.02
77706;BME280;66874;45.274;5.880;2023-07-24T10:15:29;98301.97;;;25.99;64.92
77706;BME280;66874;45.274;5.880;2023-07-24T10:18:06;98293.81;;;26.28;64.11
77706;BME280;66874;45.274;5.880;2023-07-24T10:20:40;98297.69;;;26.16;62.97
77706;BME280;66874;45.274;5.880;2023-07-24T10:23:08;98293.94;;;25.90;63.07
77706;BME280;66874;45.274;5.880;2023-07-24T10:25:36;98287.91;;;25.68;63.11
77706;BME280;66874;45.274;5.880;2023-07-24T10:28:02;98287.22;;;25.47;63.17
77706;BME280;66874;45.274;5.880;2023-07-24T10:30:31;98283.97;;;25.43;63.57
77706;BME280;66874;45.274;5.880;2023-07-24T10:33:23;98272.72;;;25.40;63.34
77706;BME280;66874;45.274;5.880;2023-07-24T10:36:07;98268.91;;;25.42;63.19
77706;BME280;66874;45.274;5.880;2023-07-24T10:38:40;98274.06;;;25.83;62.64
77706;BME280;66874;45.274;5.880;2023-07-24T10:41:08;98264.84;;;26.04;62.06
77706;BME280;66874;45.274;5.880;2023-07-24T10:44:00;98260.38;;;25.95;61.67
77706;BME280;66874;45.274;5.880;2023-07-24T10:46:38;98255.47;;;25.81;61.60
77706;BME280;66874;45.274;5.880;2023-07-24T10:49:04;98251.69;;;25.64;61.37
77706;BME280;66874;45.274;5.880;2023-07-24T10:51:30;98261.44;;;25.46;61.77
77706;BME280;66874;45.274;5.880;2023-07-24T10:53:59;98247.94;;;25.38;61.59
77706;BME280;66874;45.274;5.880;2023-07-24T10:56:24;98240.47;;;25.41;61.54
77706;BME280;66874;45.274;5.880;2023-07-24T10:58:49;98237.63;;;25.52;61.27
77706;BME280;66874;45.274;5.880;2023-07-24T11:01:17;98229.94;;;25.77;61.03
77706;BME280;66874;45.274;5.880;2023-07-24T11:03:43;98223.75;;;25.76;60.25
77706;BME280;66874;45.274;5.880;2023-07-24T11:06:17;98220.41;;;25.55;60.56
77706;BME280;66874;45.274;5.880;2023-07-24T11:08:57;98221.44;;;25.35;60.71
77706;BME280;66874;45.274;5.880;2023-07-24T11:11:35;98210.16;;;25.31;60.69
77706;BME280;66874;45.274;5.880;2023-07-24T11:14:02;98199.75;;;25.38;60.97
77706;BME280;66874;45.274;5.880;2023-07-24T11:16:27;98194.88;;;25.61;61.02
77706;BME280;66874;45.274;5.880;2023-07-24T11:18:55;98193.78;;;26.28;60.20
77706;BME280;66874;45.274;5.880;2023-07-24T11:21:22;98188.44;;;26.91;58.98
77706;BME280;66874;45.274;5.880;2023-07-24T11:23:55;98179.41;;;27.36;58.46
77706;BME280;66874;45.274;5.880;2023-07-24T11:26:25;98176.00;;;27.26;57.33
77706;BME280;66874;45.274;5.880;2023-07-24T11:28:52;98176.16;;;26.89;57.82
77706;BME280;66874;45.274;5.880;2023-07-24T11:31:17;98165.34;;;26.81;58.04
77706;BME280;66874;45.274;5.880;2023-07-24T11:33:49;98174.63;;;26.86;57.66
77706;BME280;66874;45.274;5.880;2023-07-24T11:36:15;98153.22;;;27.12;57.94
77706;BME280;66874;45.274;5.880;2023-07-24T11:38:40;98144.34;;;27.64;57.37
77706;BME280;66874;45.274;5.880;2023-07-24T11:41:08;98144.97;;;28.34;55.40
77706;BME280;66874;45.274;5.880;2023-07-24T11:43:34;98141.38;;;28.92;54.66
77706;BME280;66874;45.274;5.880;2023-07-24T11:45:59;98124.19;;;29.34;53.89
77706;BME280;66874;45.274;5.880;2023-07-24T11:48:24;98121.50;;;29.34;52.99
77706;BME280;66874;45.274;5.880;2023-07-24T11:50:52;98133.56;;;29.79;52.44
77706;BME280;66874;45.274;5.880;2023-07-24T11:53:26;98116.72;;;30.08;51.40
77706;BME280;66874;45.274;5.880;2023-07-24T11:55:53;98120.50;;;29.99;50.41
77706;BME280;66874;45.274;5.880;2023-07-24T11:58:20;98109.06;;;30.28;51.16
77706;BME280;66874;45.274;5.880;2023-07-24T12:00:47;98102.91;;;30.65;50.13
77706;BME280;66874;45.274;5.880;2023-07-24T12:03:13;98093.47;;;31.07;49.57
77706;BME280;66874;45.274;5.880;2023-07-24T12:05:43;98092.31;;;31.02;49.40
77706;BME280;66874;45.274;5.880;2023-07-24T12:08:10;98087.75;;;31.40;48.51
77706;BME280;66874;45.274;5.880;2023-07-24T12:10:37;98081.22;;;31.79;47.65
77706;BME280;66874;45.274;5.880;2023-07-24T12:13:03;98080.28;;;32.38;46.33
77706;BME280;66874;45.274;5.880;2023-07-24T12:15:29;98073.91;;;32.88;45.16
77706;BME280;66874;45.274;5.880;2023-07-24T12:17:55;98067.00;;;33.42;44.79
77706;BME280;66874;45.274;5.880;2023-07-24T12:20:22;98052.44;;;33.84;43.65
77706;BME280;66874;45.274;5.880;2023-07-24T12:22:47;98053.53;;;33.96;43.00
77706;BME280;66874;45.274;5.880;2023-07-24T12:25:13;98048.00;;;34.18;42.61
77706;BME280;66874;45.274;5.880;2023-07-24T12:27:39;98040.88;;;34.10;41.60
77706;BME280;66874;45.274;5.880;2023-07-24T12:30:06;98030.63;;;33.99;42.27
77706;BME280;66874;45.274;5.880;2023-07-24T12:32:32;98026.75;;;33.80;42.13
77706;BME280;66874;45.274;5.880;2023-07-24T12:34:57;98020.88;;;33.70;42.33
77706;BME280;66874;45.274;5.880;2023-07-24T12:37:22;98023.69;;;33.96;41.37
77706;BME280;66874;45.274;5.880;2023-07-24T12:39:48;98007.50;;;34.43;41.23
77706;BME280;66874;45.274;5.880;2023-07-24T12:42:15;98007.97;;;34.66;40.79
77706;BME280;66874;45.274;5.880;2023-07-24T12:44:41;98014.63;;;34.97;40.27
77706;BME280;66874;45.274;5.880;2023-07-24T12:47:07;98013.38;;;35.13;39.75
77706;BME280;66874;45.274;5.880;2023-07-24T12:49:33;98019.06;;;34.65;39.40
77706;BME280;66874;45.274;5.880;2023-07-24T12:51:59;98026.38;;;33.90;40.20
77706;BME280;66874;45.274;5.880;2023-07-24T12:54:24;98033.56;;;33.28;40.16
77706;BME280;66874;45.274;5.880;2023-07-24T12:56:50;98042.59;;;32.57;41.44
77706;BME280;66874;45.274;5.880;2023-07-24T12:59:16;98028.69;;;32.24;42.02
77706;BME280;66874;45.274;5.880;2023-07-24T13:01:42;98035.81;;;31.74;42.75
77706;BME280;66874;45.274;5.880;2023-07-24T13:04:08;98032.59;;;31.34;43.14
77706;BME280;66874;45.274;5.880;2023-07-24T13:06:33;98040.94;;;31.10;43.78